Terminal Aerodrome Forecast
Issued by NWS Bismarck, ND

Home | Current Version | Previous Version | Graphics & Text | Print | Product List | Glossary On
Versions: 1 2 3 4 5 6 7 8 9 10 11 12 13 14 15 16 17 18 19
000
FTUS43 KBIS 241700
TAFBIS
TAF
KBIS 241736Z 2418/2518 34012G21KT P6SM SCT200
     FM242300 30011KT P6SM BKN090
     FM250300 29007KT P6SM BKN025
     FM251200 23005KT P6SM BKN020
     FM251400 17005KT P6SM -SN OVC015=

USA.gov is the U.S. government's official web portal to all federal, state and local government web resources and services.